METAR Data
IDs: Format: Raw Decoded Include TAF

Data at: 2132 UTC 06 Dec 2019

KHYA 062056Z 18004KT 10SM FEW028 BKN090 OVC100 06/01 A2995 RMK AO2 SLP145 T00560006 58022
KHYA 061956Z 21009KT 10SM OVC060 05/M01 A2997 RMK AO2 SLP152 T00501011
KHYA 061856Z 23011KT 10SM OVC070 05/M03 A3000 RMK AO2 SLP161 T00501028
KHYA 061756Z 22009KT 10SM OVC075 04/M04 A3002 RMK AO2 SLP167 T00391044 10039 21006 56030
KHYA 061656Z 24010KT 10SM OVC075 03/M06 A3005 RMK AO2 SLP179 T00331061
KHYA 061556Z 23009KT 10SM SCT075 03/M07 A3007 RMK AO2 PRESFR SLP184 T00331067
KHYA 061456Z 25008KT 10SM FEW080 02/M07 A3011 RMK AO2 SLP197 T00221067 50014
KHYA 061356Z 25010G16KT 10SM CLR 01/M07 A3011 RMK AO2 SLP197 T00111067
KHYA 061256Z 26008KT 10SM CLR 01/M07 A3009 RMK AO2 SLP190 T00061072
KHYA 061156Z 29009KT 10SM CLR M01/M08 A3007 RMK AO2 SLP183 T10061083 10000 21017 50011
KHYA 061056Z 27008KT 10SM CLR M01/M09 A3007 RMK AO2 SLP183 T10111089
KHYA 060956Z AUTO 29007KT 10SM CLR M01/M09 A3005 RMK AO2 SLP176 T10111089
KHYA 060856Z AUTO 27006KT 10SM CLR M01/M09 A3003 RMK AO2 SLP172 T10111089 51021
KHYA 060756Z AUTO VRB03KT 10SM CLR M01/M09 A3003 RMK AO2 SLP168 T10111089
KHYA 060656Z AUTO 30006KT 10SM CLR M01/M09 A3000 RMK AO2 SLP161 T10061089
KHYA 060556Z AUTO 28008KT 10SM CLR 00/M09 A2997 RMK AO2 SLP149 T00001089 10044 20000 53033
KHYA 060456Z AUTO 28007G16KT 10SM CLR 01/M09 A2994 RMK AO2 SLP138 T00061089 400781011
KHYA 060356Z AUTO 28010KT 10SM SCT060 01/M08 A2990 RMK AO2 SLP126 T00061083
KHYA 060256Z 28009KT 10SM CLR 01/M09 A2987 RMK AO2 SLP117 T00111089 53026
KHYA 060156Z 28010G19KT 10SM FEW075 02/M09 A2984 RMK AO2 SLP106 T00221089
KHYA 060056Z 28011G21KT 10SM OVC075 03/M08 A2981 RMK AO2 SLP095 T00331083
KHYA 052356Z 28008G18KT 10SM OVC060 04/M07 A2980 RMK AO2 SLP090 T00441072 10078 20044 51038
KHYA 052256Z 28008G21KT 10SM OVC060 05/M06 A2976 RMK AO2 SLP079 T00501056
KHYA 052156Z 27009KT 10SM OVC055 05/M04 A2972 RMK AO2 SLP064 T00501044
KHYA 052056Z 29007KT 10SM OVC050 06/M04 A2968 RMK AO2 SLP052 T00561039 53031
KHYA 051956Z 28007KT 10SM BKN048 06/M04 A2965 RMK AO2 SLP040 T00611039
KHYA 051856Z 29011G19KT 10SM FEW045 07/M03 A2961 RMK AO2 SLP028 T00721033
KHYA 051756Z 29012G19KT 10SM CLR 07/M03 A2959 RMK AO2 SLP021 T00721028 10072 20006 53001
KHYA 051656Z 29010G19KT 10SM CLR 07/M02 A2958 RMK AO2 SLP018 T00671022
KHYA 051556Z 31008G16KT 10SM CLR 06/M01 A2958 RMK AO2 SLP017 T00611011
KHYA 051456Z 28007G15KT 10SM CLR 05/M01 A2959 RMK AO2 SLP020 T00501011 51016
KHYA 051356Z 28006KT 10SM CLR 04/M01 A2958 RMK AO2 SLP016 T00391011
KHYA 051256Z 26006KT 10SM CLR 02/M02 A2956 RMK AO2 SLP013 T00171017
KHYA 051156Z 27003KT 10SM CLR 01/M02 A2954 RMK AO2 SLP005 T00061022 10022 21011 53022
KHYA 051056Z 28003KT 10SM SCT110 01/M02 A2952 RMK AO2 SLP997 T00061022
KHYA 050956Z AUTO 27003KT 10SM CLR 01/M02 A2949 RMK AO2 SLP989 T00061022